sensor_id;sensor_type;location;lat;lon;timestamp;P1;durP1;ratioP1;P2;durP2;ratioP2
34767;SDS011;21755;43.608;1.236;2023-01-09T00:01:15;4.50;;;0.70;;
34767;SDS011;21755;43.608;1.236;2023-01-09T00:03:43;4.32;;;0.80;;
34767;SDS011;21755;43.608;1.236;2023-01-09T00:06:09;3.97;;;1.02;;
34767;SDS011;21755;43.608;1.236;2023-01-09T00:08:35;7.47;;;0.90;;
34767;SDS011;21755;43.608;1.236;2023-01-09T00:11:02;8.05;;;0.77;;
34767;SDS011;21755;43.608;1.236;2023-01-09T00:13:28;7.38;;;1.30;;
34767;SDS011;21755;43.608;1.236;2023-01-09T00:15:53;8.57;;;1.05;;
34767;SDS011;21755;43.608;1.236;2023-01-09T00:18:19;5.78;;;0.90;;
34767;SDS011;21755;43.608;1.236;2023-01-09T00:20:45;5.63;;;0.90;;
34767;SDS011;21755;43.608;1.236;2023-01-09T00:23:11;3.25;;;0.90;;
34767;SDS011;21755;43.608;1.236;2023-01-09T00:25:37;9.18;;;1.00;;
34767;SDS011;21755;43.608;1.236;2023-01-09T00:28:03;4.10;;;0.70;;
34767;SDS011;21755;43.608;1.236;2023-01-09T00:30:29;9.68;;;1.63;;
34767;SDS011;21755;43.608;1.236;2023-01-09T00:32:55;8.50;;;0.95;;
34767;SDS011;21755;43.608;1.236;2023-01-09T00:35:21;6.55;;;0.95;;
34767;SDS011;21755;43.608;1.236;2023-01-09T00:37:49;9.65;;;1.33;;
34767;SDS011;21755;43.608;1.236;2023-01-09T00:40:15;8.43;;;1.48;;
34767;SDS011;21755;43.608;1.236;2023-01-09T00:42:42;8.98;;;1.10;;
34767;SDS011;21755;43.608;1.236;2023-01-09T00:45:12;11.50;;;0.95;;
34767;SDS011;21755;43.608;1.236;2023-01-09T00:47:42;9.25;;;0.90;;
34767;SDS011;21755;43.608;1.236;2023-01-09T00:50:17;15.40;;;2.15;;
34767;SDS011;21755;43.608;1.236;2023-01-09T00:52:46;8.90;;;1.05;;
34767;SDS011;21755;43.608;1.236;2023-01-09T00:55:14;9.80;;;1.55;;
34767;SDS011;21755;43.608;1.236;2023-01-09T00:57:40;6.97;;;1.30;;
34767;SDS011;21755;43.608;1.236;2023-01-09T01:00:07;8.82;;;1.23;;
34767;SDS011;21755;43.608;1.236;2023-01-09T01:02:34;9.32;;;1.20;;
34767;SDS011;21755;43.608;1.236;2023-01-09T01:04:59;6.78;;;1.35;;
34767;SDS011;21755;43.608;1.236;2023-01-09T01:07:44;10.50;;;1.42;;
34767;SDS011;21755;43.608;1.236;2023-01-09T01:10:18;9.50;;;1.42;;
34767;SDS011;21755;43.608;1.236;2023-01-09T01:12:46;6.45;;;1.20;;
34767;SDS011;21755;43.608;1.236;2023-01-09T01:15:13;12.00;;;1.48;;
34767;SDS011;21755;43.608;1.236;2023-01-09T01:17:40;5.97;;;0.93;;
34767;SDS011;21755;43.608;1.236;2023-01-09T01:20:08;9.00;;;1.60;;
34767;SDS011;21755;43.608;1.236;2023-01-09T01:22:36;12.55;;;1.55;;
34767;SDS011;21755;43.608;1.236;2023-01-09T01:25:03;9.52;;;1.40;;
34767;SDS011;21755;43.608;1.236;2023-01-09T01:27:29;14.45;;;2.72;;
34767;SDS011;21755;43.608;1.236;2023-01-09T01:29:55;14.85;;;1.33;;
34767;SDS011;21755;43.608;1.236;2023-01-09T01:32:22;11.63;;;1.23;;
34767;SDS011;21755;43.608;1.236;2023-01-09T01:34:48;6.05;;;1.60;;
34767;SDS011;21755;43.608;1.236;2023-01-09T01:37:14;9.18;;;1.52;;
34767;SDS011;21755;43.608;1.236;2023-01-09T01:39:40;8.75;;;1.30;;
34767;SDS011;21755;43.608;1.236;2023-01-09T01:42:06;9.38;;;1.30;;
34767;SDS011;21755;43.608;1.236;2023-01-09T01:47:19;12.43;;;1.55;;
34767;SDS011;21755;43.608;1.236;2023-01-09T01:49:49;9.80;;;1.58;;
34767;SDS011;21755;43.608;1.236;2023-01-09T01:52:16;7.75;;;1.35;;
34767;SDS011;21755;43.608;1.236;2023-01-09T01:54:43;5.90;;;1.15;;
34767;SDS011;21755;43.608;1.236;2023-01-09T01:57:10;9.00;;;1.50;;
34767;SDS011;21755;43.608;1.236;2023-01-09T01:59:40;11.15;;;1.88;;
34767;SDS011;21755;43.608;1.236;2023-01-09T02:02:14;9.45;;;1.40;;
34767;SDS011;21755;43.608;1.236;2023-01-09T02:04:42;6.72;;;1.58;;
34767;SDS011;21755;43.608;1.236;2023-01-09T02:07:10;11.80;;;1.60;;
34767;SDS011;21755;43.608;1.236;2023-01-09T02:09:36;12.35;;;2.00;;
34767;SDS011;21755;43.608;1.236;2023-01-09T02:12:24;10.85;;;1.60;;
34767;SDS011;21755;43.608;1.236;2023-01-09T02:15:01;11.20;;;1.45;;
34767;SDS011;21755;43.608;1.236;2023-01-09T02:20:30;8.40;;;1.23;;
34767;SDS011;21755;43.608;1.236;2023-01-09T02:29:20;11.45;;;2.38;;
34767;SDS011;21755;43.608;1.236;2023-01-09T02:31:52;8.43;;;1.45;;
34767;SDS011;21755;43.608;1.236;2023-01-09T02:39:51;16.58;;;1.73;;
34767;SDS011;21755;43.608;1.236;2023-01-09T02:42:36;10.05;;;1.42;;
34767;SDS011;21755;43.608;1.236;2023-01-09T02:45:06;14.15;;;2.50;;
34767;SDS011;21755;43.608;1.236;2023-01-09T02:47:36;9.32;;;1.55;;
34767;SDS011;21755;43.608;1.236;2023-01-09T02:50:03;9.05;;;1.70;;
34767;SDS011;21755;43.608;1.236;2023-01-09T03:06:56;17.48;;;2.38;;
34767;SDS011;21755;43.608;1.236;2023-01-09T03:15:01;12.82;;;1.95;;
34767;SDS011;21755;43.608;1.236;2023-01-09T03:17:32;4.75;;;0.95;;
34767;SDS011;21755;43.608;1.236;2023-01-09T03:20:02;6.15;;;1.40;;
34767;SDS011;21755;43.608;1.236;2023-01-09T03:22:30;11.05;;;1.73;;
34767;SDS011;21755;43.608;1.236;2023-01-09T03:24:56;12.93;;;1.63;;
34767;SDS011;21755;43.608;1.236;2023-01-09T03:27:22;6.95;;;1.00;;
34767;SDS011;21755;43.608;1.236;2023-01-09T03:29:48;10.30;;;1.88;;
34767;SDS011;21755;43.608;1.236;2023-01-09T03:32:15;14.07;;;1.92;;
34767;SDS011;21755;43.608;1.236;2023-01-09T03:34:41;11.00;;;1.60;;
34767;SDS011;21755;43.608;1.236;2023-01-09T03:37:07;9.20;;;1.60;;
34767;SDS011;21755;43.608;1.236;2023-01-09T03:39:33;11.90;;;2.00;;
34767;SDS011;21755;43.608;1.236;2023-01-09T03:41:58;7.30;;;1.52;;
34767;SDS011;21755;43.608;1.236;2023-01-09T03:44:24;8.88;;;1.65;;
34767;SDS011;21755;43.608;1.236;2023-01-09T03:46:50;11.65;;;1.90;;
34767;SDS011;21755;43.608;1.236;2023-01-09T03:49:16;11.25;;;1.70;;
34767;SDS011;21755;43.608;1.236;2023-01-09T03:51:43;13.93;;;2.15;;
34767;SDS011;21755;43.608;1.236;2023-01-09T03:54:09;12.07;;;1.90;;
34767;SDS011;21755;43.608;1.236;2023-01-09T03:56:34;16.67;;;2.30;;
34767;SDS011;21755;43.608;1.236;2023-01-09T03:59:00;12.18;;;2.25;;
34767;SDS011;21755;43.608;1.236;2023-01-09T04:01:26;13.30;;;1.92;;
34767;SDS011;21755;43.608;1.236;2023-01-09T04:03:52;8.23;;;1.80;;
34767;SDS011;21755;43.608;1.236;2023-01-09T04:06:18;14.60;;;2.03;;
34767;SDS011;21755;43.608;1.236;2023-01-09T04:08:44;19.95;;;3.15;;
34767;SDS011;21755;43.608;1.236;2023-01-09T04:11:10;9.60;;;1.35;;
34767;SDS011;21755;43.608;1.236;2023-01-09T04:13:36;11.38;;;1.85;;
34767;SDS011;21755;43.608;1.236;2023-01-09T04:16:02;19.17;;;3.30;;
34767;SDS011;21755;43.608;1.236;2023-01-09T04:18:28;13.70;;;2.08;;
34767;SDS011;21755;43.608;1.236;2023-01-09T04:20:54;16.63;;;2.00;;
34767;SDS011;21755;43.608;1.236;2023-01-09T04:23:20;20.95;;;3.63;;
34767;SDS011;21755;43.608;1.236;2023-01-09T04:25:46;10.13;;;1.83;;
34767;SDS011;21755;43.608;1.236;2023-01-09T04:28:13;12.18;;;2.78;;
34767;SDS011;21755;43.608;1.236;2023-01-09T04:30:38;14.70;;;1.77;;
34767;SDS011;21755;43.608;1.236;2023-01-09T04:33:04;13.32;;;1.77;;
34767;SDS011;21755;43.608;1.236;2023-01-09T04:35:30;17.73;;;1.70;;
34767;SDS011;21755;43.608;1.236;2023-01-09T04:37:56;14.40;;;2.17;;
34767;SDS011;21755;43.608;1.236;2023-01-09T04:40:22;14.48;;;1.67;;
34767;SDS011;21755;43.608;1.236;2023-01-09T04:42:48;12.23;;;2.10;;
34767;SDS011;21755;43.608;1.236;2023-01-09T04:45:14;11.98;;;1.85;;
34767;SDS011;21755;43.608;1.236;2023-01-09T04:47:41;6.35;;;1.30;;
34767;SDS011;21755;43.608;1.236;2023-01-09T04:50:08;13.15;;;1.80;;
34767;SDS011;21755;43.608;1.236;2023-01-09T04:52:35;11.10;;;1.88;;
34767;SDS011;21755;43.608;1.236;2023-01-09T04:55:00;8.90;;;1.50;;
34767;SDS011;21755;43.608;1.236;2023-01-09T04:57:26;14.27;;;1.73;;
34767;SDS011;21755;43.608;1.236;2023-01-09T04:59:52;8.88;;;1.77;;
34767;SDS011;21755;43.608;1.236;2023-01-09T05:02:18;12.02;;;1.90;;
34767;SDS011;21755;43.608;1.236;2023-01-09T05:04:44;7.75;;;1.40;;
34767;SDS011;21755;43.608;1.236;2023-01-09T05:07:10;9.52;;;1.75;;
34767;SDS011;21755;43.608;1.236;2023-01-09T05:09:36;17.00;;;1.65;;
34767;SDS011;21755;43.608;1.236;2023-01-09T05:12:02;13.77;;;1.92;;
34767;SDS011;21755;43.608;1.236;2023-01-09T05:14:27;11.18;;;1.60;;
34767;SDS011;21755;43.608;1.236;2023-01-09T05:16:54;6.22;;;1.15;;
34767;SDS011;21755;43.608;1.236;2023-01-09T05:19:20;10.70;;;1.85;;
34767;SDS011;21755;43.608;1.236;2023-01-09T05:21:47;13.48;;;1.58;;
34767;SDS011;21755;43.608;1.236;2023-01-09T05:24:13;8.57;;;1.75;;
34767;SDS011;21755;43.608;1.236;2023-01-09T05:26:39;19.17;;;2.67;;
34767;SDS011;21755;43.608;1.236;2023-01-09T05:29:05;14.10;;;1.70;;
34767;SDS011;21755;43.608;1.236;2023-01-09T05:31:31;11.23;;;2.03;;
34767;SDS011;21755;43.608;1.236;2023-01-09T05:33:57;9.15;;;1.75;;
34767;SDS011;21755;43.608;1.236;2023-01-09T05:36:24;10.40;;;2.72;;
34767;SDS011;21755;43.608;1.236;2023-01-09T05:38:51;13.90;;;1.88;;
34767;SDS011;21755;43.608;1.236;2023-01-09T05:41:17;14.13;;;1.75;;
34767;SDS011;21755;43.608;1.236;2023-01-09T05:43:42;16.25;;;2.00;;
34767;SDS011;21755;43.608;1.236;2023-01-09T05:46:08;8.38;;;2.08;;
34767;SDS011;21755;43.608;1.236;2023-01-09T05:48:34;8.02;;;2.17;;
34767;SDS011;21755;43.608;1.236;2023-01-09T05:51:00;11.18;;;2.58;;
34767;SDS011;21755;43.608;1.236;2023-01-09T05:53:26;11.50;;;1.77;;
34767;SDS011;21755;43.608;1.236;2023-01-09T05:55:52;12.15;;;1.92;;
34767;SDS011;21755;43.608;1.236;2023-01-09T05:58:18;19.63;;;1.92;;
34767;SDS011;21755;43.608;1.236;2023-01-09T06:00:43;8.45;;;2.15;;
34767;SDS011;21755;43.608;1.236;2023-01-09T06:03:09;10.75;;;1.75;;
34767;SDS011;21755;43.608;1.236;2023-01-09T06:05:35;14.93;;;2.28;;
34767;SDS011;21755;43.608;1.236;2023-01-09T06:08:01;9.80;;;1.90;;
34767;SDS011;21755;43.608;1.236;2023-01-09T06:10:27;11.70;;;1.42;;
34767;SDS011;21755;43.608;1.236;2023-01-09T06:12:53;8.68;;;2.45;;
34767;SDS011;21755;43.608;1.236;2023-01-09T06:15:19;7.75;;;1.60;;
34767;SDS011;21755;43.608;1.236;2023-01-09T06:17:45;13.98;;;2.15;;
34767;SDS011;21755;43.608;1.236;2023-01-09T06:20:11;18.15;;;2.28;;
34767;SDS011;21755;43.608;1.236;2023-01-09T06:22:37;11.25;;;1.90;;
34767;SDS011;21755;43.608;1.236;2023-01-09T06:25:03;9.50;;;1.80;;
34767;SDS011;21755;43.608;1.236;2023-01-09T06:27:29;6.47;;;1.40;;
34767;SDS011;21755;43.608;1.236;2023-01-09T06:29:55;9.75;;;2.45;;
34767;SDS011;21755;43.608;1.236;2023-01-09T06:32:21;16.25;;;1.92;;
34767;SDS011;21755;43.608;1.236;2023-01-09T06:34:47;14.63;;;1.77;;
34767;SDS011;21755;43.608;1.236;2023-01-09T06:37:13;11.32;;;2.03;;
34767;SDS011;21755;43.608;1.236;2023-01-09T06:39:39;12.38;;;2.10;;
34767;SDS011;21755;43.608;1.236;2023-01-09T06:42:05;18.35;;;2.70;;
34767;SDS011;21755;43.608;1.236;2023-01-09T06:44:30;11.80;;;1.80;;
34767;SDS011;21755;43.608;1.236;2023-01-09T06:46:57;16.92;;;1.80;;
34767;SDS011;21755;43.608;1.236;2023-01-09T06:49:23;10.15;;;2.05;;
34767;SDS011;21755;43.608;1.236;2023-01-09T06:51:49;17.48;;;2.72;;
34767;SDS011;21755;43.608;1.236;2023-01-09T06:54:19;7.45;;;2.13;;
34767;SDS011;21755;43.608;1.236;2023-01-09T06:56:45;11.60;;;2.30;;
34767;SDS011;21755;43.608;1.236;2023-01-09T06:59:11;12.27;;;1.88;;
34767;SDS011;21755;43.608;1.236;2023-01-09T07:01:37;10.77;;;1.85;;
34767;SDS011;21755;43.608;1.236;2023-01-09T07:04:04;9.65;;;1.48;;
34767;SDS011;21755;43.608;1.236;2023-01-09T07:06:31;10.75;;;2.30;;
34767;SDS011;21755;43.608;1.236;2023-01-09T07:08:57;13.68;;;1.83;;
34767;SDS011;21755;43.608;1.236;2023-01-09T07:11:23;8.68;;;1.85;;
34767;SDS011;21755;43.608;1.236;2023-01-09T07:13:49;5.78;;;1.40;;
34767;SDS011;21755;43.608;1.236;2023-01-09T07:16:15;6.88;;;1.25;;
34767;SDS011;21755;43.608;1.236;2023-01-09T07:18:41;9.40;;;1.30;;
34767;SDS011;21755;43.608;1.236;2023-01-09T07:21:07;13.02;;;1.60;;
34767;SDS011;21755;43.608;1.236;2023-01-09T07:23:33;9.70;;;1.80;;
34767;SDS011;21755;43.608;1.236;2023-01-09T07:25:59;3.80;;;1.00;;
34767;SDS011;21755;43.608;1.236;2023-01-09T07:28:25;11.05;;;1.50;;
34767;SDS011;21755;43.608;1.236;2023-01-09T07:30:51;6.65;;;0.93;;
34767;SDS011;21755;43.608;1.236;2023-01-09T07:33:17;9.10;;;1.30;;
34767;SDS011;21755;43.608;1.236;2023-01-09T07:35:43;8.38;;;1.55;;
34767;SDS011;21755;43.608;1.236;2023-01-09T07:38:09;9.77;;;1.52;;
34767;SDS011;21755;43.608;1.236;2023-01-09T07:40:35;16.60;;;2.58;;
34767;SDS011;21755;43.608;1.236;2023-01-09T07:43:01;10.05;;;1.80;;
34767;SDS011;21755;43.608;1.236;2023-01-09T07:45:27;7.15;;;1.50;;
34767;SDS011;21755;43.608;1.236;2023-01-09T07:47:53;13.00;;;2.78;;
34767;SDS011;21755;43.608;1.236;2023-01-09T07:50:19;7.05;;;1.25;;
34767;SDS011;21755;43.608;1.236;2023-01-09T07:52:45;9.43;;;1.17;;
34767;SDS011;21755;43.608;1.236;2023-01-09T07:55:11;10.57;;;1.50;;
34767;SDS011;21755;43.608;1.236;2023-01-09T07:57:37;8.60;;;1.35;;
34767;SDS011;21755;43.608;1.236;2023-01-09T08:00:04;6.55;;;1.02;;
34767;SDS011;21755;43.608;1.236;2023-01-09T08:02:31;9.23;;;1.10;;
34767;SDS011;21755;43.608;1.236;2023-01-09T08:04:57;7.07;;;1.05;;
34767;SDS011;21755;43.608;1.236;2023-01-09T08:07:23;10.70;;;1.83;;
34767;SDS011;21755;43.608;1.236;2023-01-09T08:09:49;6.45;;;1.48;;
34767;SDS011;21755;43.608;1.236;2023-01-09T08:12:15;5.85;;;1.15;;
34767;SDS011;21755;43.608;1.236;2023-01-09T08:14:41;9.77;;;1.80;;
34767;SDS011;21755;43.608;1.236;2023-01-09T08:17:07;10.70;;;1.80;;
34767;SDS011;21755;43.608;1.236;2023-01-09T08:19:35;5.55;;;0.98;;
34767;SDS011;21755;43.608;1.236;2023-01-09T08:22:00;6.53;;;1.42;;
34767;SDS011;21755;43.608;1.236;2023-01-09T08:24:27;11.52;;;1.83;;
34767;SDS011;21755;43.608;1.236;2023-01-09T08:26:54;15.52;;;2.15;;
34767;SDS011;21755;43.608;1.236;2023-01-09T08:29:20;10.80;;;1.70;;
34767;SDS011;21755;43.608;1.236;2023-01-09T08:31:46;9.73;;;1.60;;
34767;SDS011;21755;43.608;1.236;2023-01-09T08:34:11;9.88;;;1.58;;
34767;SDS011;21755;43.608;1.236;2023-01-09T08:36:37;12.38;;;2.33;;
34767;SDS011;21755;43.608;1.236;2023-01-09T08:39:03;7.13;;;1.23;;
34767;SDS011;21755;43.608;1.236;2023-01-09T08:41:29;14.52;;;1.73;;
34767;SDS011;21755;43.608;1.236;2023-01-09T08:44:13;10.88;;;1.25;;
34767;SDS011;21755;43.608;1.236;2023-01-09T08:46:57;5.85;;;1.27;;
34767;SDS011;21755;43.608;1.236;2023-01-09T08:49:29;11.05;;;1.80;;
34767;SDS011;21755;43.608;1.236;2023-01-09T08:51:59;10.90;;;1.45;;
34767;SDS011;21755;43.608;1.236;2023-01-09T08:54:26;8.90;;;1.33;;
34767;SDS011;21755;43.608;1.236;2023-01-09T08:56:52;6.90;;;1.25;;
34767;SDS011;21755;43.608;1.236;2023-01-09T08:59:18;4.57;;;1.10;;
34767;SDS011;21755;43.608;1.236;2023-01-09T09:01:44;6.68;;;1.45;;
34767;SDS011;21755;43.608;1.236;2023-01-09T09:04:09;8.48;;;1.35;;
34767;SDS011;21755;43.608;1.236;2023-01-09T09:06:35;4.78;;;1.05;;
34767;SDS011;21755;43.608;1.236;2023-01-09T09:09:01;7.15;;;1.40;;
34767;SDS011;21755;43.608;1.236;2023-01-09T09:11:33;6.50;;;1.20;;
34767;SDS011;21755;43.608;1.236;2023-01-09T09:13:59;12.05;;;2.05;;
34767;SDS011;21755;43.608;1.236;2023-01-09T09:16:25;5.07;;;1.50;;
34767;SDS011;21755;43.608;1.236;2023-01-09T09:18:52;12.93;;;1.73;;
34767;SDS011;21755;43.608;1.236;2023-01-09T09:21:18;12.95;;;2.65;;
34767;SDS011;21755;43.608;1.236;2023-01-09T09:23:44;8.95;;;1.92;;
34767;SDS011;21755;43.608;1.236;2023-01-09T09:26:10;6.57;;;1.45;;
34767;SDS011;21755;43.608;1.236;2023-01-09T09:28:37;7.25;;;1.50;;
34767;SDS011;21755;43.608;1.236;2023-01-09T09:31:03;10.15;;;2.97;;
34767;SDS011;21755;43.608;1.236;2023-01-09T09:33:30;9.68;;;2.38;;
34767;SDS011;21755;43.608;1.236;2023-01-09T09:35:59;9.18;;;2.45;;
34767;SDS011;21755;43.608;1.236;2023-01-09T09:38:24;9.00;;;1.38;;
34767;SDS011;21755;43.608;1.236;2023-01-09T09:47:08;9.98;;;1.35;;
34767;SDS011;21755;43.608;1.236;2023-01-09T09:54:49;9.23;;;2.92;;
34767;SDS011;21755;43.608;1.236;2023-01-09T09:57:20;8.50;;;1.95;;
34767;SDS011;21755;43.608;1.236;2023-01-09T09:59:56;6.20;;;1.08;;
34767;SDS011;21755;43.608;1.236;2023-01-09T10:02:24;9.68;;;2.05;;
34767;SDS011;21755;43.608;1.236;2023-01-09T10:05:00;9.80;;;1.63;;
34767;SDS011;21755;43.608;1.236;2023-01-09T10:07:36;6.38;;;2.53;;
34767;SDS011;21755;43.608;1.236;2023-01-09T10:10:13;10.40;;;2.40;;
34767;SDS011;21755;43.608;1.236;2023-01-09T10:12:49;12.55;;;2.40;;
34767;SDS011;21755;43.608;1.236;2023-01-09T10:15:28;11.70;;;2.05;;
34767;SDS011;21755;43.608;1.236;2023-01-09T10:21:05;6.60;;;1.38;;
34767;SDS011;21755;43.608;1.236;2023-01-09T10:23:55;11.23;;;1.67;;
34767;SDS011;21755;43.608;1.236;2023-01-09T10:26:36;6.43;;;0.93;;
34767;SDS011;21755;43.608;1.236;2023-01-09T10:32:08;15.90;;;4.00;;
34767;SDS011;21755;43.608;1.236;2023-01-09T10:34:46;13.57;;;4.93;;
34767;SDS011;21755;43.608;1.236;2023-01-09T10:39:54;4.47;;;0.85;;
34767;SDS011;21755;43.608;1.236;2023-01-09T10:42:38;17.27;;;6.50;;
34767;SDS011;21755;43.608;1.236;2023-01-09T10:50:50;9.00;;;1.65;;
34767;SDS011;21755;43.608;1.236;2023-01-09T10:53:20;10.52;;;2.08;;
34767;SDS011;21755;43.608;1.236;2023-01-09T10:55:51;9.65;;;1.55;;
34767;SDS011;21755;43.608;1.236;2023-01-09T10:58:21;7.00;;;1.70;;
34767;SDS011;21755;43.608;1.236;2023-01-09T11:00:48;12.20;;;1.70;;
34767;SDS011;21755;43.608;1.236;2023-01-09T11:03:16;5.60;;;1.20;;
34767;SDS011;21755;43.608;1.236;2023-01-09T11:05:47;6.82;;;1.75;;
34767;SDS011;21755;43.608;1.236;2023-01-09T11:10:59;9.18;;;1.42;;
34767;SDS011;21755;43.608;1.236;2023-01-09T11:13:28;4.43;;;0.90;;
34767;SDS011;21755;43.608;1.236;2023-01-09T11:18:25;7.18;;;1.05;;
34767;SDS011;21755;43.608;1.236;2023-01-09T11:20:51;4.20;;;1.10;;
34767;SDS011;21755;43.608;1.236;2023-01-09T11:25:53;2.58;;;1.02;;
34767;SDS011;21755;43.608;1.236;2023-01-09T11:28:21;10.05;;;0.98;;
34767;SDS011;21755;43.608;1.236;2023-01-09T11:33:23;3.42;;;0.75;;
34767;SDS011;21755;43.608;1.236;2023-01-09T11:38:16;3.78;;;0.60;;
34767;SDS011;21755;43.608;1.236;2023-01-09T11:40:43;6.32;;;1.00;;
34767;SDS011;21755;43.608;1.236;2023-01-09T11:43:12;9.02;;;1.58;;
34767;SDS011;21755;43.608;1.236;2023-01-09T11:45:41;6.57;;;1.45;;
34767;SDS011;21755;43.608;1.236;2023-01-09T11:48:17;3.97;;;0.60;;
34767;SDS011;21755;43.608;1.236;2023-01-09T11:50:53;6.00;;;1.15;;
34767;SDS011;21755;43.608;1.236;2023-01-09T11:53:20;3.42;;;0.60;;
34767;SDS011;21755;43.608;1.236;2023-01-09T11:55:46;3.30;;;0.60;;
34767;SDS011;21755;43.608;1.236;2023-01-09T11:58:20;2.85;;;0.50;;
34767;SDS011;21755;43.608;1.236;2023-01-09T12:06:13;1.48;;;0.85;;
34767;SDS011;21755;43.608;1.236;2023-01-09T12:09:03;2.50;;;0.77;;
34767;SDS011;21755;43.608;1.236;2023-01-09T12:14:10;7.28;;;0.77;;
34767;SDS011;21755;43.608;1.236;2023-01-09T12:22:06;4.30;;;1.80;;
34767;SDS011;21755;43.608;1.236;2023-01-09T12:24:39;8.65;;;1.25;;
34767;SDS011;21755;43.608;1.236;2023-01-09T12:27:15;8.40;;;0.77;;
34767;SDS011;21755;43.608;1.236;2023-01-09T12:49:34;7.43;;;2.17;;
34767;SDS011;21755;43.608;1.236;2023-01-09T12:52:11;1.48;;;0.60;;
34767;SDS011;21755;43.608;1.236;2023-01-09T12:54:54;2.38;;;1.25;;
34767;SDS011;21755;43.608;1.236;2023-01-09T12:57:38;9.50;;;1.10;;
34767;SDS011;21755;43.608;1.236;2023-01-09T13:03:14;7.45;;;0.90;;
34767;SDS011;21755;43.608;1.236;2023-01-09T13:05:44;5.38;;;1.15;;
34767;SDS011;21755;43.608;1.236;2023-01-09T13:11:38;12.60;;;4.45;;
34767;SDS011;21755;43.608;1.236;2023-01-09T13:18:58;34.45;;;15.55;;
34767;SDS011;21755;43.608;1.236;2023-01-09T13:21:31;11.68;;;2.75;;
34767;SDS011;21755;43.608;1.236;2023-01-09T13:26:29;9.35;;;2.03;;
34767;SDS011;21755;43.608;1.236;2023-01-09T13:28:56;13.30;;;2.00;;
34767;SDS011;21755;43.608;1.236;2023-01-09T13:34:08;28.00;;;9.25;;
34767;SDS011;21755;43.608;1.236;2023-01-09T13:36:38;29.95;;;7.20;;
34767;SDS011;21755;43.608;1.236;2023-01-09T13:39:21;23.77;;;4.07;;
34767;SDS011;21755;43.608;1.236;2023-01-09T13:41:51;18.98;;;4.65;;
34767;SDS011;21755;43.608;1.236;2023-01-09T13:44:46;21.20;;;6.68;;
34767;SDS011;21755;43.608;1.236;2023-01-09T13:47:35;13.68;;;3.47;;
34767;SDS011;21755;43.608;1.236;2023-01-09T13:50:03;17.33;;;5.15;;
34767;SDS011;21755;43.608;1.236;2023-01-09T13:57:42;17.05;;;2.70;;
34767;SDS011;21755;43.608;1.236;2023-01-09T14:02:54;15.48;;;3.00;;
34767;SDS011;21755;43.608;1.236;2023-01-09T14:10:37;34.33;;;8.93;;
34767;SDS011;21755;43.608;1.236;2023-01-09T14:13:19;25.00;;;6.93;;
34767;SDS011;21755;43.608;1.236;2023-01-09T14:15:48;27.17;;;9.82;;
34767;SDS011;21755;43.608;1.236;2023-01-09T14:18:16;17.63;;;4.53;;
34767;SDS011;21755;43.608;1.236;2023-01-09T14:21:03;16.35;;;3.20;;
34767;SDS011;21755;43.608;1.236;2023-01-09T14:23:35;15.38;;;5.50;;
34767;SDS011;21755;43.608;1.236;2023-01-09T14:26:04;22.70;;;3.58;;
34767;SDS011;21755;43.608;1.236;2023-01-09T14:28:40;25.80;;;7.22;;
34767;SDS011;21755;43.608;1.236;2023-01-09T14:31:06;16.80;;;5.25;;
34767;SDS011;21755;43.608;1.236;2023-01-09T14:33:33;28.55;;;11.02;;
34767;SDS011;21755;43.608;1.236;2023-01-09T14:36:18;19.48;;;4.93;;
34767;SDS011;21755;43.608;1.236;2023-01-09T14:38:50;18.42;;;4.78;;
34767;SDS011;21755;43.608;1.236;2023-01-09T14:41:18;26.05;;;7.28;;
34767;SDS011;21755;43.608;1.236;2023-01-09T14:46:53;24.23;;;5.90;;
34767;SDS011;21755;43.608;1.236;2023-01-09T14:49:41;19.83;;;5.60;;
34767;SDS011;21755;43.608;1.236;2023-01-09T14:52:29;30.15;;;11.27;;
34767;SDS011;21755;43.608;1.236;2023-01-09T14:55:01;28.38;;;6.60;;
34767;SDS011;21755;43.608;1.236;2023-01-09T14:57:31;11.20;;;2.90;;
34767;SDS011;21755;43.608;1.236;2023-01-09T15:00:03;14.98;;;4.93;;
34767;SDS011;21755;43.608;1.236;2023-01-09T15:02:50;13.88;;;3.33;;
34767;SDS011;21755;43.608;1.236;2023-01-09T15:05:17;31.05;;;11.07;;
34767;SDS011;21755;43.608;1.236;2023-01-09T15:07:49;12.60;;;3.08;;
34767;SDS011;21755;43.608;1.236;2023-01-09T15:10:25;35.45;;;11.50;;
34767;SDS011;21755;43.608;1.236;2023-01-09T15:12:54;17.77;;;4.47;;
34767;SDS011;21755;43.608;1.236;2023-01-09T15:15:22;27.67;;;11.40;;
34767;SDS011;21755;43.608;1.236;2023-01-09T15:17:59;13.20;;;3.58;;
34767;SDS011;21755;43.608;1.236;2023-01-09T15:20:28;10.15;;;2.25;;
34767;SDS011;21755;43.608;1.236;2023-01-09T15:22:56;21.27;;;8.23;;
34767;SDS011;21755;43.608;1.236;2023-01-09T15:27:58;20.30;;;6.50;;
34767;SDS011;21755;43.608;1.236;2023-01-09T15:30:32;18.40;;;4.38;;
34767;SDS011;21755;43.608;1.236;2023-01-09T15:33:09;26.83;;;7.22;;
34767;SDS011;21755;43.608;1.236;2023-01-09T15:35:40;19.10;;;5.88;;
34767;SDS011;21755;43.608;1.236;2023-01-09T15:38:12;24.80;;;7.18;;
34767;SDS011;21755;43.608;1.236;2023-01-09T15:41:07;24.33;;;7.05;;
34767;SDS011;21755;43.608;1.236;2023-01-09T15:43:33;36.95;;;15.88;;
34767;SDS011;21755;43.608;1.236;2023-01-09T15:46:04;62.63;;;28.73;;
34767;SDS011;21755;43.608;1.236;2023-01-09T15:48:32;46.05;;;20.52;;
34767;SDS011;21755;43.608;1.236;2023-01-09T15:53:34;19.30;;;8.60;;
34767;SDS011;21755;43.608;1.236;2023-01-09T15:56:05;21.00;;;4.95;;
34767;SDS011;21755;43.608;1.236;2023-01-09T15:58:55;16.25;;;2.38;;
34767;SDS011;21755;43.608;1.236;2023-01-09T16:01:34;18.05;;;5.32;;
34767;SDS011;21755;43.608;1.236;2023-01-09T16:06:34;13.20;;;3.38;;
34767;SDS011;21755;43.608;1.236;2023-01-09T16:09:02;13.52;;;3.45;;
34767;SDS011;21755;43.608;1.236;2023-01-09T16:11:33;16.33;;;5.13;;
34767;SDS011;21755;43.608;1.236;2023-01-09T16:14:20;12.15;;;4.22;;
34767;SDS011;21755;43.608;1.236;2023-01-09T16:16:57;17.65;;;3.97;;
34767;SDS011;21755;43.608;1.236;2023-01-09T16:21:58;5.45;;;1.75;;
34767;SDS011;21755;43.608;1.236;2023-01-09T16:24:26;10.57;;;3.95;;
34767;SDS011;21755;43.608;1.236;2023-01-09T16:29:50;31.30;;;10.70;;
34767;SDS011;21755;43.608;1.236;2023-01-09T16:32:19;18.02;;;6.05;;
34767;SDS011;21755;43.608;1.236;2023-01-09T16:34:51;41.65;;;16.67;;
34767;SDS011;21755;43.608;1.236;2023-01-09T16:37:22;28.33;;;9.38;;
34767;SDS011;21755;43.608;1.236;2023-01-09T16:42:33;35.08;;;13.75;;
34767;SDS011;21755;43.608;1.236;2023-01-09T16:45:18;22.58;;;6.68;;
34767;SDS011;21755;43.608;1.236;2023-01-09T16:47:44;20.33;;;2.60;;
34767;SDS011;21755;43.608;1.236;2023-01-09T16:50:11;19.77;;;3.85;;
34767;SDS011;21755;43.608;1.236;2023-01-09T16:52:38;41.25;;;13.10;;
34767;SDS011;21755;43.608;1.236;2023-01-09T16:55:04;20.08;;;7.28;;
34767;SDS011;21755;43.608;1.236;2023-01-09T16:57:30;20.42;;;4.85;;
34767;SDS011;21755;43.608;1.236;2023-01-09T16:59:58;10.80;;;2.83;;
34767;SDS011;21755;43.608;1.236;2023-01-09T17:02:25;21.83;;;3.65;;
34767;SDS011;21755;43.608;1.236;2023-01-09T17:04:51;12.98;;;2.80;;
34767;SDS011;21755;43.608;1.236;2023-01-09T17:07:19;17.55;;;5.93;;
34767;SDS011;21755;43.608;1.236;2023-01-09T17:09:51;19.75;;;4.95;;
34767;SDS011;21755;43.608;1.236;2023-01-09T17:12:21;13.00;;;3.15;;
34767;SDS011;21755;43.608;1.236;2023-01-09T17:14:51;23.45;;;4.90;;
34767;SDS011;21755;43.608;1.236;2023-01-09T17:17:17;22.30;;;3.88;;
34767;SDS011;21755;43.608;1.236;2023-01-09T17:19:45;33.78;;;10.55;;
34767;SDS011;21755;43.608;1.236;2023-01-09T17:22:11;19.48;;;4.43;;
34767;SDS011;21755;43.608;1.236;2023-01-09T17:24:38;17.48;;;3.67;;
34767;SDS011;21755;43.608;1.236;2023-01-09T17:27:32;17.20;;;4.25;;
34767;SDS011;21755;43.608;1.236;2023-01-09T17:30:18;21.83;;;6.43;;